Tiempo atmosférico en la estación meteorológica de Bera, Navarra (78 m.)



Fecha
DESCASC
Temp. máxima en grados centígrados (hora)
DESCASC
Temp. mínima en grados centígrados (hora)
DESCASC
Temp. media en grados centígrados
DESCASC
Racha de viento máxima en m/sg (hora)
DESCASC
Velocidad máxima media en intervalos de 10 minutos(hora)
DESCASC
Precipitaciones diarias en mm
DESCASC
Precipitaciones de 00:00 a 06:00 en mm
DESCASC
Precipitaciones de 06:00 a 12:00 en mm
DESCASC
Precipitaciones de 12:00 a 18:00 en mm
DESCASC
Precipitaciones de 18:00 a 24:00 en mm
DESCASC
25-02-2021 19.4 (13:50) 12.2 (23:50) 15.8 9.17 (02:40) 4.17 (14:30) 0 0 0 0 0
24-02-2021 21.8 (16:30) 13 (02:10) 17.4 12.22 (17:30) 4.17 (15:00) 0 0 0 0 0
23-02-2021 19.6 (15:10) 4.2 (05:30) 11.9 12.78 (15:40) 5.83 (15:40) 0 0 0 0 0
22-02-2021 11.2 (00:00) 6.9 (23:50) 9 5.83 (00:30) 2.5 (14:20) 27.4 11.6 14.4 0.8 0.6
21-02-2021 20.1 (13:10) 11.2 (00:00) 15.7 12.78 (04:10) 4.44 (20:30) 0.4 0 0 0 0.4
20-02-2021 24.5 (15:50) 15.5 (00:00) 20 19.72 (13:30) 6.94 (13:30) 0 0 0 0 0
19-02-2021 21.6 (15:50) 5.7 (00:00) 13.7 12.78 (22:40) 4.72 (16:20) 0 0 0 0 0
18-02-2021 18.2 (13:10) 9.2 (00:00) 13.7 12.22 (01:40) 5.56 (05:40) 0 0 0 0 0
17-02-2021 20.1 (15:20) 5.4 (00:00) 12.8 10 (16:00) 4.44 (16:30) 0.2 0 0.2 0 0
16-02-2021 19.2 (14:20) 7.2 (00:00) 13.2 13.33 (00:30) 6.11 (06:50) 0.4 0 0 0 0.4
15-02-2021 17.8 (16:00) 11.9 (00:00) 14.8 12.78 (03:20) 4.17 (08:50) 0 0 0 0 0
14-02-2021 18.8 (15:30) 2.8 (00:00) 10.8 11.67 (22:30) 5 (14:00) 0 0 0 0 0
13-02-2021 15.5 (14:20) 5.1 (00:00) 10.3 3.89 (17:30) 1.67 (17:30) 2.4 2.2 0.2 0 0
12-02-2021 16.3 (05:20) 8.6 (00:00) 12.4 11.39 (15:40) 5 (11:40) 19.4 0 7 4.6 7.8
11-02-2021 19.2 (16:00) 3.6 (00:00) 11.4 4.72 (13:30) 1.67 (13:40) 0 0 0 0 0
10-02-2021 10.7 (16:20) 5.3 (00:00) 8 10.28 (11:20) 4.17 (11:20) 6.2 0 1.6 4.4 0.2
09-02-2021 13.6 (13:40) 5.8 (00:00) 9.7 10.56 (13:20) 3.89 (10:00) 1.8 0.2 0 1.4 0.2
08-02-2021 14.2 (15:00) 7.6 (00:00) 10.9 7.22 (21:00) 3.61 (16:30) 7 1.8 3.4 0.2 1.6
07-02-2021 11.3 (14:30) 5.7 (00:00) 8.5 5 (14:30) 2.22 (14:20) 8.4 4.4 3.4 0 0.6
06-02-2021 11.4 (13:10) 6.9 (00:00) 9.1 10.56 (17:20) 5 (17:20) 39.6 0 7 27.4 5.2
05-02-2021 14.9 (13:30) 8.4 (00:00) 11.6 4.72 (13:50) 2.5 (13:50) 0.4 0 0.4 0 0
04-02-2021 16.8 (14:30) 9.7 (00:00) 13.2 7.5 (01:30) 3.33 (01:30) 0.8 0 0.8 0 0
03-02-2021 18.9 (14:10) 13.4 (00:00) 16.1 13.89 (00:50) 6.39 (00:50) 0 0 0 0 0
02-02-2021 20.7 (14:00) 6.7 (08:00) 13.7 9.17 (14:30) 3.06 (14:30) 0.4 0 0 0 0.4
01-02-2021 14.4 (12:40) 11.6 (00:00) 13 16.11 (04:50) 5.56 (00:50) 10.8 0.8 0 7.8 2.2
31-01-2021 14 (22:50) 8.6 (00:00) 11.3 17.5 (02:30) 6.67 (04:30) 19.6 7.8 6.8 3.2 1.8
30-01-2021 16.2 (02:20) 9.5 (00:00) 12.9 13.33 (08:20) 5.28 (22:00) 29.4 3.6 17 3.2 5.6

Gráficas

Temp. máximas Temp. mínimas Temp. medias Precipitaciones Rachas de viento máximas Velocidades máximas media en intervalos de 10 minutos

Datos horarios

Fecha y hora oficial Temperatura (ºC) Velocidad del viento (km/h) Dirección del viento Racha (km/h) Dirección de racha Precipitación (mm) Presión (hPa) Tendencia (hPa) Humedad (%)
2021-02-28 23:00:00 7.1 0 Calma 5 Sudeste 0 -- -- 91
2021-02-28 22:00:00 8.1 0 Calma 4 Sur 0 -- -- 89
2021-02-28 21:00:00 9.4 0 Calma 5 Este 0 -- -- 85
2021-02-28 20:00:00 10.3 0 Calma 5 Sudeste 0 -- -- 85
2021-02-28 19:00:00 11.7 2 Sudeste 13 Este 0 -- -- 75
2021-02-28 18:00:00 13.4 6 Este 12 Este 0 -- -- 70
2021-02-28 17:00:00 13.9 0 Calma 6 Oeste 0 -- -- 71
2021-02-28 16:00:00 13.7 3 Oeste 7 Sudeste 0.2 -- -- 73
2021-02-28 15:00:00 12.4 2 Sudeste 17 Sur 0 -- -- 74
2021-02-28 14:00:00 13.4 4 Sur 15 Nordeste 0 -- -- 69
2021-02-28 13:00:00 13.8 3 Sudoeste 10 Sudoeste 0 -- -- 66
2021-02-28 12:00:00 11.6 3 Oeste 6 Oeste 0 -- -- 75
2021-02-28 11:00:00 8.7 2 Sur 4 Sur 0 -- -- 88
2021-02-28 10:00:00 5.8 0 Calma 2 Sur 0 -- -- 95
2021-02-28 09:00:00 4.4 0 Calma 2 Nordeste 0 -- -- 97
2021-02-28 08:00:00 3.4 0 Calma 2 Sudeste 0 -- -- 96
2021-02-28 07:00:00 2.9 0 Calma 2 Sur 0 -- -- 96
2021-02-28 06:00:00 2.7 0 Calma 8 Este 0 -- -- 95
2021-02-28 05:00:00 3 0 Calma 5 Nordeste 0 -- -- 94
2021-02-28 04:00:00 3 0 Calma 3 Sudeste 0 -- -- 94
2021-02-28 03:00:00 3.4 0 Calma 3 Sudeste 0 -- -- 92
2021-02-28 02:00:00 4.4 0 Calma 6 Sudeste 0 -- -- 90
2021-02-28 01:00:00 6 3 Sudeste 6 Sudeste 0 -- -- 86
2021-02-28 00:00:00 7.9 2 Sudeste 5 Este 0 -- -- 86
2021-02-27 23:00:00 8.1 0 Calma 5 Este 0 -- -- 84
2021-02-27 22:00:00 8.6 0 Calma 3 Sudeste 0 -- -- 82
2021-02-27 21:00:00 9.1 0 Calma 4 Sur 0 -- -- 79
2021-02-27 20:00:00 9.5 0 Calma 12 Norte 0 -- -- 74
2021-02-27 19:00:00 9.8 6 Norte 19 Noroeste 0 -- -- 70
2021-02-27 18:00:00 10.9 6 Norte 17 Noroeste 0 -- -- 65
2021-02-27 17:00:00 12 7 Norte 17 Noroeste 0 -- -- 66
2021-02-27 16:00:00 12.4 8 Norte 22 Noroeste 0 -- -- 68
2021-02-27 15:00:00 12.3 13 Noroeste 23 Noroeste 0 -- -- 70
2021-02-27 14:00:00 13.8 6 Norte 20 Noroeste 0 -- -- 65
2021-02-27 13:00:00 13.9 7 Norte 17 Norte 0 -- -- 65
2021-02-27 12:00:00 12.4 6 Noroeste 13 Noroeste 0 -- -- 73
2021-02-27 11:00:00 11.1 5 Noroeste 17 Noroeste 0 -- -- 86
2021-02-27 10:00:00 10.6 8 Norte 17 Noroeste 0 -- -- 86
2021-02-27 09:00:00 10.6 3 Norte 13 Noroeste 0 -- -- 90
2021-02-27 08:00:00 10.1 0 Calma 7 Norte 0 -- -- 90
2021-02-27 07:00:00 10.7 0 Calma 5 Este 0 -- -- 90
2021-02-27 06:00:00 10.7 0 Calma 8 Noroeste 0 -- -- 91
2021-02-27 05:00:00 10.7 0 Calma 2 Sur 0 -- -- 91
2021-02-27 04:00:00 10.8 0 Calma 2 Sudeste 0 -- -- 89
2021-02-27 03:00:00 11 0 Calma 3 Sudeste 0 -- -- 88
2021-02-27 02:00:00 11.4 0 Calma 7 Nordeste 0 -- -- 86
2021-02-27 01:00:00 11.1 0 Calma 5 Norte 0 -- -- 89
2021-02-27 00:00:00 11.3 0 Calma 2 Sudoeste 0 -- -- 87
2021-02-26 23:00:00 11.5 0 Calma 8 Noroeste 0 -- -- 85
2021-02-26 22:00:00 11.5 4 Norte 12 Noroeste 0 -- -- 83
2021-02-26 21:00:00 11.6 3 Norte 9 Norte 0 -- -- 83
2021-02-26 20:00:00 11.7 4 Norte 12 Noroeste 0 -- -- 83
2021-02-26 19:00:00 12 5 Noroeste 17 Noroeste 0 -- -- 82
2021-02-26 18:00:00 12.4 4 Norte 18 Noroeste 0 -- -- 80
2021-02-26 17:00:00 12.8 10 Norte 21 Norte 0 -- -- 78
2021-02-26 16:00:00 13.3 10 Norte 20 Norte 0 -- -- 77
2021-02-26 15:00:00 14.1 9 Norte 15 Noroeste 0 -- -- 74
2021-02-26 14:00:00 13.9 4 Noroeste 12 Norte 0 -- -- 76
2021-02-26 13:00:00 13.6 6 Noroeste 10 Noroeste 0 -- -- 79
2021-02-26 12:00:00 12.9 5 Noroeste 14 Noroeste 0 -- -- 83
2021-02-26 11:00:00 12.6 5 Norte 14 Norte 0 -- -- 84
2021-02-26 10:00:00 12.1 3 Noroeste 9 Noroeste 0 -- -- 86
2021-02-26 09:00:00 11.8 2 Norte 4 Nordeste 0 -- -- 90
2021-02-26 08:00:00 11.6 0 Calma 4 Norte 0 -- -- 91
2021-02-26 07:00:00 11.7 2 Noroeste 8 Noroeste 0 -- -- 89
2021-02-26 06:00:00 11.9 3 Noroeste 9 Nordeste 0 -- -- 90
2021-02-26 05:00:00 12.1 4 Noroeste 8 Noroeste 0 -- -- 90
2021-02-26 04:00:00 12 0 Calma 3 Este 0 -- -- 90
2021-02-26 03:00:00 12.1 0 Calma 5 Este 0 -- -- 89
2021-02-26 02:00:00 12 2 Sudeste 4 Sudeste 0 -- -- 88
2021-02-26 01:00:00 12.3 2 Nordeste 7 Norte 0 -- -- 86
2021-02-26 00:00:00 12.2 0 Calma 4 Sudeste 0 -- -- 86
2021-02-25 23:00:00 12.3 0 Calma 3 Sudeste 0 -- -- 87
2021-02-25 22:00:00 12.6 0 Calma 4 Sudeste 0 -- -- 84
2021-02-25 21:00:00 12.8 0 Calma 4 Norte 0 -- -- 83
2021-02-25 20:00:00 13.3 4 Noroeste 9 Norte 0 -- -- 79
2021-02-25 19:00:00 13.5 5 Norte 13 Norte 0 -- -- 76
2021-02-25 18:00:00 13.7 5 Norte 19 Noroeste 0 -- -- 78
2021-02-25 17:00:00 13.8 10 Noroeste 24 Noroeste 0 -- -- 79
2021-02-25 16:00:00 14.8 12 Norte 24 Noroeste 0 -- -- 75
2021-02-25 15:00:00 16 15 Noroeste 27 Norte 0 -- -- 71
2021-02-25 14:00:00 18.8 12 Noroeste 24 Sudoeste 0 -- -- 59
2021-02-25 13:00:00 18 10 Sur 25 Sudoeste 0 -- -- 46
2021-02-25 12:00:00 16.6 3 Noroeste 22 Sur 0 -- -- 50
2021-02-25 11:00:00 15.6 7 Sur 27 Sur 0 -- -- 52
2021-02-25 10:00:00 15.1 7 Sur 21 Sur 0 -- -- 53
2021-02-25 09:00:00 14.3 4 Sudeste 23 Sur 0 -- -- 57
2021-02-25 08:00:00 14.5 10 Sudeste 27 Sudeste 0 -- -- 55
2021-02-25 07:00:00 13.9 3 Oeste 22 Sudoeste 0 -- -- 56
2021-02-25 06:00:00 13.7 9 Este 21 Nordeste 0 -- -- 54
2021-02-25 05:00:00 14.5 4 Norte 14 Este 0 -- -- 54
2021-02-25 04:00:00 14 6 Este 14 Este 0 -- -- 53
2021-02-25 03:00:00 16 6 Sudeste 33 Sudoeste 0 -- -- 48
2021-02-25 02:00:00 16.3 5 Sudeste 23 Sur 0 -- -- 44
2021-02-25 01:00:00 16.6 4 Oeste 19 Oeste 0 -- -- 47
2021-02-25 00:00:00 16.5 5 Sudoeste 24 Sudoeste 0 -- -- 45
2021-02-24 23:00:00 17.2 6 Nordeste 24 Este 0 -- -- 49
2021-02-24 22:00:00 17.1 4 Sudeste 20 Sudeste 0 -- -- 52
2021-02-24 21:00:00 18 5 Oeste 21 Sur 0 -- -- 49
2021-02-24 20:00:00 18.5 4 Sudeste 18 Sudoeste 0 -- -- 48
2021-02-24 19:00:00 18.9 6 Sudeste 23 Sudoeste 0 -- -- 45
2021-02-24 18:00:00 20.8 12 Sur 44 Sudoeste 0 -- -- 41
2021-02-24 17:00:00 21.7 8 Sudoeste 30 Sudoeste 0 -- -- 42
2021-02-24 16:00:00 21.7 12 Sudoeste 36 Sur 0 -- -- 43
2021-02-24 15:00:00 21.4 15 Sudoeste 44 Sudoeste 0 -- -- 45
2021-02-24 14:00:00 21.3 7 Nordeste 43 Sudoeste 0 -- -- 50
2021-02-24 13:00:00 20.5 6 Oeste 33 Sudoeste 0 -- -- 49
2021-02-24 12:00:00 19.1 8 Oeste 32 Este 0 -- -- 51
2021-02-24 11:00:00 18 7 Este 31 Sudoeste 0 -- -- 55
2021-02-24 10:00:00 16.8 9 Noroeste 31 Sudeste 0 -- -- 58
2021-02-24 09:00:00 16.1 9 Este 34 Este 0 -- -- 60
2021-02-24 08:00:00 16.2 12 Sudoeste 32 Sudoeste 0 -- -- 61
2021-02-24 07:00:00 16.3 5 Noroeste 31 Sudoeste 0 -- -- 59
2021-02-24 06:00:00 16.4 11 Oeste 33 Sur 0 -- -- 60
2021-02-24 05:00:00 16.5 9 Sudeste 32 Sudeste 0 -- -- 60
2021-02-24 04:00:00 16.7 10 Sur 39 Sur 0 -- -- 59
2021-02-24 03:00:00 15.5 4 Noroeste 24 Oeste 0 -- -- 64
2021-02-24 02:00:00 14 4 Norte 16 Este 0 -- -- 66
2021-02-24 01:00:00 15.1 8 Sudoeste 28 Sur 0 -- -- 59
2021-02-24 00:00:00 15.6 7 Sudoeste 37 Sur 0 -- -- 56
2021-02-23 23:00:00 15.9 10 Sur 31 Sudoeste 0 -- -- 56
2021-02-23 22:00:00 16.1 7 Sur 30 Sudeste 0 -- -- 54
2021-02-23 21:00:00 16 10 Sudoeste 25 Nordeste 0 -- -- 54
2021-02-23 20:00:00 16.6 8 Sur 28 Sur 0 -- -- 51
2021-02-23 19:00:00 16.6 3 Sudeste 20 Sur 0 -- -- 51
2021-02-23 18:00:00 17.9 5 Sudeste 37 Sudeste 0 -- -- 49
2021-02-23 17:00:00 18.8 13 Sur 38 Este 0 -- -- 45
2021-02-23 16:00:00 19.2 13 Sudoeste 46 Sur 0 -- -- 47
2021-02-23 15:00:00 19.3 12 Sur 39 Sudoeste 0 -- -- 46
2021-02-23 14:00:00 18.6 15 Sudoeste 36 Sudoeste 0 -- -- 48
2021-02-23 13:00:00 18 11 Sudoeste 32 Sur 0 -- -- 53
2021-02-23 12:00:00 16.6 7 Sudoeste 29 Norte 0 -- -- 57
2021-02-23 11:00:00 14.7 7 Sur 32 Sur 0 -- -- 62
2021-02-23 10:00:00 13.2 9 Sudeste 42 Sudeste 0 -- -- 69
2021-02-23 09:00:00 11.5 8 Oeste 27 Sudoeste 0 -- -- 76
2021-02-23 08:00:00 7 3 Nordeste 9 Sudeste 0 -- -- 98
2021-02-23 07:00:00 6.4 0 Calma 10 Sur 0 -- -- 99
2021-02-23 06:00:00 5.3 2 Este 6 Sur 0 -- -- 99
2021-02-23 05:00:00 4.8 2 Sudeste 5 Este 0 -- -- 98
2021-02-23 04:00:00 5.4 2 Sudeste 6 Este 0 -- -- 98
2021-02-23 03:00:00 5.8 0 Calma 8 Este 0 -- -- 98
2021-02-23 02:00:00 6.3 0 Calma 4 Sudoeste 0 -- -- 98
2021-02-23 01:00:00 6.7 3 Norte 7 Nordeste 0 -- -- 97
2021-02-23 00:00:00 6.9 2 Este 4 Este 0 -- -- 97
2021-02-22 23:00:00 7.6 2 Oeste 7 Sudeste 0.2 -- -- 96
2021-02-22 22:00:00 8.4 2 Sur 5 Sur 0 -- -- 95
2021-02-22 21:00:00 9.3 0 Calma 2 Sudeste 0 -- -- 95
2021-02-22 20:00:00 9.8 0 Calma 5 Norte 0.2 -- -- 95
2021-02-22 19:00:00 10.2 0 Calma 4 Este 0.2 -- -- 92
2021-02-22 18:00:00 10.5 2 Este 6 Este 0 -- -- 88
2021-02-22 17:00:00 10.8 0 Calma 8 Sur 0.2 -- -- 86
2021-02-22 16:00:00 10.8 3 Oeste 12 Noroeste 0 -- -- 85
2021-02-22 15:00:00 10.8 0 Calma 15 Noroeste 0 -- -- 84
2021-02-22 14:00:00 10.8 5 Oeste 16 Oeste 0.2 -- -- 90
2021-02-22 13:00:00 10.2 5 Sudoeste 12 Oeste 0.4 -- -- 93
2021-02-22 12:00:00 9.5 0 Calma 7 Sudoeste 0.6 -- -- 94
2021-02-22 11:00:00 9 4 Sudoeste 10 Sur 2.8 -- -- 94
2021-02-22 10:00:00 8.8 3 Sudoeste 14 Oeste 3.8 -- -- 96
2021-02-22 09:00:00 8.8 0 Calma 16 Oeste 3.6 -- -- 96
2021-02-22 08:00:00 8.8 0 Calma 15 Sudoeste 2.8 -- -- 96
2021-02-22 07:00:00 8.6 3 Sudeste 11 Sudoeste 0.8 -- -- 95
2021-02-22 06:00:00 8.6 0 Calma 12 Sudeste 3 -- -- 95
2021-02-22 05:00:00 8.7 0 Calma 8 Sudoeste 1.4 -- -- 95
2021-02-22 04:00:00 8.8 0 Calma 16 Sudoeste 1.8 -- -- 94
2021-02-22 03:00:00 9.4 0 Calma 6 Sudeste 3.2 -- -- 93
2021-02-22 02:00:00 9.7 3 Oeste 18 Oeste 1 -- -- 89
2021-02-22 01:00:00 10 7 Oeste 21 Oeste 1.2 -- -- 87
2021-02-22 00:00:00 11.2 6 Oeste 14 Sudoeste 0.4 -- -- 86
2021-02-21 23:00:00 11.9 4 Oeste 12 Noroeste 0 -- -- 86
2021-02-21 22:00:00 12.2 5 Norte 21 Norte 0 -- -- 86
2021-02-21 21:00:00 12.6 10 Norte 37 Nordeste 0 -- -- 85
2021-02-21 20:00:00 15.1 4 Sudeste 13 Norte 0 -- -- 58
2021-02-21 19:00:00 16.3 2 Sudeste 14 Sur 0 -- -- 54
2021-02-21 18:00:00 17.3 4 Norte 26 Sur 0 -- -- 50
2021-02-21 17:00:00 18.1 4 Noroeste 31 Sudoeste 0 -- -- 47
2021-02-21 16:00:00 19 9 Sudoeste 26 Sur 0 -- -- 43
2021-02-21 15:00:00 19.2 8 Sudoeste 32 Sudoeste 0 -- -- 41
2021-02-21 14:00:00 19.1 15 Sudoeste 32 Sudoeste 0 -- -- 39
2021-02-21 13:00:00 19.7 7 Este 22 Este 0 -- -- 33
2021-02-21 12:00:00 19.3 5 Este 22 Sudeste 0 -- -- 37
2021-02-21 11:00:00 18.7 8 Sudeste 31 Sudoeste 0 -- -- 33
2021-02-21 10:00:00 17.7 9 Sudoeste 31 Sudoeste 0 -- -- 36
2021-02-21 09:00:00 16.8 5 Sur 23 Este 0 -- -- 37
2021-02-21 08:00:00 15.2 6 Este 18 Nordeste 0 -- -- 37
2021-02-21 07:00:00 16.2 10 Sudeste 39 Sudoeste 0 -- -- 37
2021-02-21 06:00:00 17.2 14 Sur 37 Sur 0 -- -- 33
2021-02-21 05:00:00 17.7 13 Sur 46 Sur 0 -- -- 33
2021-02-21 04:00:00 17.9 11 Sur 36 Sudoeste 0 -- -- 31
2021-02-21 03:00:00 18.4 9 Sur 38 Sur 0 -- -- 31
2021-02-21 02:00:00 18.6 9 Sudoeste 33 Sur 0 -- -- 30
2021-02-21 01:00:00 18.3 6 Oeste 23 Oeste 0 -- -- 34
2021-02-21 00:00:00 16.3 4 Noroeste 14 Sudoeste 0 -- -- 45
2021-02-20 23:00:00 15.9 3 Sudeste 10 Noroeste 0 -- -- 47
2021-02-20 22:00:00 18.6 6 Sudeste 19 Este 0 -- -- 41
2021-02-20 21:00:00 18.7 5 Sudeste 17 Sudeste 0 -- -- 32
2021-02-20 20:00:00 20.6 5 Oeste 22 Sudoeste 0 -- -- 33
2021-02-20 19:00:00 21.6 7 Oeste 25 Sur 0 -- -- 28
2021-02-20 18:00:00 23.3 10 Sur 39 Oeste 0 -- -- 24
2021-02-20 17:00:00 24 6 Sudeste 59 Sudeste 0 -- -- 24
2021-02-20 16:00:00 24.5 16 Sudoeste 42 Sur 0 -- -- 24
2021-02-20 15:00:00 23.4 13 Sudeste 70 Sur 0 -- -- 24
2021-02-20 14:00:00 23.7 13 Sur 71 Este 0 -- -- 24
2021-02-20 13:00:00 23.6 13 Sudeste 45 Nordeste 0 -- -- 26
2021-02-20 12:00:00 21.4 9 Sur 36 Oeste 0 -- -- 33
2021-02-20 11:00:00 20 6 Sudoeste 58 Sudoeste 0 -- -- 31
2021-02-20 10:00:00 19.2 21 Sur 55 Sudoeste 0 -- -- 33
2021-02-20 09:00:00 18.6 14 Sur 44 Sur 0 -- -- 34
2021-02-20 08:00:00 18.4 14 Sur 45 Sur 0 -- -- 33
2021-02-20 07:00:00 18.5 15 Sur 42 Sudoeste 0 -- -- 33
2021-02-20 06:00:00 18.6 17 Sudoeste 51 Sudoeste 0 -- -- 33
2021-02-20 05:00:00 19 9 Sudoeste 30 Sudoeste 0 -- -- 31
2021-02-20 04:00:00 19.2 7 Sudoeste 28 Sudoeste 0 -- -- 31
2021-02-20 03:00:00 19.6 12 Sudoeste 40 Sur 0 -- -- 31
2021-02-20 02:00:00 19.6 13 Sudoeste 46 Sudoeste 0 -- -- 31
2021-02-20 01:00:00 19.9 17 Sudoeste 48 Sudoeste 0 -- -- 32
2021-02-20 00:00:00 19.5 14 Sudoeste 35 Sur 0 -- -- 33
2021-02-19 23:00:00 19.3 10 Sudoeste 46 Sudoeste 0 -- -- 34
2021-02-19 22:00:00 19.4 13 Sudoeste 34 Sur 0 -- -- 36
2021-02-19 21:00:00 19.4 6 Sudeste 23 Este 0 -- -- 37
2021-02-19 20:00:00 19.2 5 Sur 17 Sur 0 -- -- 36
2021-02-19 19:00:00 19.7 5 Norte 35 Oeste 0 -- -- 38
2021-02-19 18:00:00 20.6 6 Sur 29 Sudoeste 0 -- -- 34
2021-02-19 17:00:00 21.5 6 Noroeste 42 Sudeste 0 -- -- 35
2021-02-19 16:00:00 21.4 14 Sur 36 Sur 0 -- -- 34
2021-02-19 15:00:00 21.1 13 Sur 41 Sur 0 -- -- 37
2021-02-19 14:00:00 20.5 15 Sur 37 Sur 0 -- -- 38
2021-02-19 13:00:00 20 15 Sur 43 Sur 0 -- -- 38
2021-02-19 12:00:00 18.7 11 Sudoeste 39 Sudoeste 0 -- -- 40
2021-02-19 11:00:00 17.5 10 Sur 39 Sur 0 -- -- 41
2021-02-19 10:00:00 16 11 Sudeste 32 Sudeste 0 -- -- 45
2021-02-19 09:00:00 14.9 11 Sur 32 Sudeste 0 -- -- 48
2021-02-19 08:00:00 14.5 6 Sudeste 30 Sudeste 0 -- -- 49
2021-02-19 07:00:00 13.8 4 Sudeste 21 Este 0 -- -- 52
2021-02-19 06:00:00 13.1 4 Nordeste 20 Sur 0 -- -- 57
2021-02-19 05:00:00 6.8 2 Norte 9 Este 0 -- -- 97
2021-02-19 04:00:00 5.9 2 Oeste 6 Sudeste 0 -- -- 95
2021-02-19 03:00:00 6.2 0 Calma 5 Este 0 -- -- 93
2021-02-19 02:00:00 7.1 0 Calma 4 Sudeste 0 -- -- 92
2021-02-19 01:00:00 8.1 2 Sur 6 Sur 0 -- -- 91
2021-02-19 00:00:00 9.2 3 Sudeste 5 Este 0 -- -- 88
2021-02-18 23:00:00 10.5 0 Calma 4 Sudeste 0 -- -- 88
2021-02-18 22:00:00 10.7 0 Calma 4 Sudeste 0 -- -- 87
2021-02-18 21:00:00 11.9 2 Este 9 Nordeste 0 -- -- 81
2021-02-18 20:00:00 12.2 3 Nordeste 9 Norte 0 -- -- 78
2021-02-18 19:00:00 12.2 4 Norte 12 Norte 0 -- -- 76
2021-02-18 18:00:00 12.7 5 Norte 13 Nordeste 0 -- -- 76
2021-02-18 17:00:00 13.2 7 Norte 20 Nordeste 0 -- -- 77
2021-02-18 16:00:00 13.8 7 Noroeste 19 Norte 0 -- -- 78
2021-02-18 15:00:00 15.2 11 Norte 27 Norte 0 -- -- 69
2021-02-18 14:00:00 16.6 13 Norte 27 Norte 0 -- -- 66
2021-02-18 13:00:00 18.1 8 Sur 23 Sudoeste 0 -- -- 40
2021-02-18 12:00:00 17.9 6 Sudoeste 21 Sudoeste 0 -- -- 42
2021-02-18 11:00:00 16.8 11 Sur 35 Sudoeste 0 -- -- 44
2021-02-18 10:00:00 16.5 12 Sudoeste 31 Sudoeste 0 -- -- 46
2021-02-18 09:00:00 16.4 7 Sur 22 Sudoeste 0 -- -- 46
2021-02-18 08:00:00 16.7 6 Sur 43 Sudoeste 0 -- -- 45
2021-02-18 07:00:00 17.3 14 Sudoeste 43 Sudoeste 0 -- -- 45
2021-02-18 06:00:00 17.4 19 Sudoeste 42 Sudoeste 0 -- -- 46
2021-02-18 05:00:00 17.6 15 Sudoeste 36 Sudoeste 0 -- -- 47
2021-02-18 04:00:00 17.3 8 Sudoeste 26 Sudoeste 0 -- -- 48
2021-02-18 03:00:00 17.8 12 Sur 38 Sur 0 -- -- 46
2021-02-18 02:00:00 17.5 10 Sudeste 44 Sudeste 0 -- -- 49
2021-02-18 01:00:00 17.5 8 Sur 31 Sur 0 -- -- 51
2021-02-18 00:00:00 17.1 12 Sudeste 35 Sur 0 -- -- 54
2021-02-17 23:00:00 17.6 13 Sudeste 35 Sur 0 -- -- 54
2021-02-17 22:00:00 17.2 9 Sudeste 24 Sudeste 0 -- -- 55
2021-02-17 21:00:00 17.5 5 Sudeste 26 Sur 0 -- -- 56
2021-02-17 20:00:00 16.9 6 Sudeste 29 Este 0 -- -- 59
2021-02-17 19:00:00 17 3 Sudeste 21 Oeste 0 -- -- 59
2021-02-17 18:00:00 17.9 5 Sur 23 Sur 0 -- -- 55
2021-02-17 17:00:00 18.3 5 Sudoeste 33 Sudoeste 0 -- -- 56
2021-02-17 16:00:00 19.6 14 Sudoeste 36 Sudoeste 0 -- -- 49
2021-02-17 15:00:00 19.7 8 Sudoeste 22 Sudoeste 0 -- -- 54
2021-02-17 14:00:00 19 4 Sudoeste 17 Sudoeste 0 -- -- 57
2021-02-17 13:00:00 18.3 8 Sur 22 Sudeste 0 -- -- 55
2021-02-17 12:00:00 17 7 Sudeste 26 Sudeste 0 -- -- 60
2021-02-17 11:00:00 15.8 7 Sur 21 Sur 0.2 -- -- 66
2021-02-17 10:00:00 8.5 3 Noroeste 8 Noroeste 0 -- -- 97
2021-02-17 09:00:00 6 0 Calma 3 Sudeste 0 -- -- 98
2021-02-17 08:00:00 5.6 0 Calma 2 Sudeste 0 -- -- 98
2021-02-17 07:00:00 5.4 0 Calma 3 Este 0 -- -- 97
2021-02-17 06:00:00 5.7 0 Calma 3 Nordeste 0 -- -- 97
2021-02-17 05:00:00 6.1 0 Calma 2 Este 0 -- -- 97
2021-02-17 04:00:00 6.2 0 Calma 2 Este 0 -- -- 97
2021-02-17 03:00:00 5.8 0 Calma 3 Sudeste 0 -- -- 96
2021-02-17 02:00:00 5.6 0 Calma 3 Sudeste 0 -- -- 95
2021-02-17 01:00:00 6.5 2 Sudeste 5 Sudeste 0 -- -- 94
2021-02-17 00:00:00 7.2 0 Calma 5 Sudeste 0 -- -- 93
2021-02-16 23:00:00 8.2 0 Calma 4 Este 0 -- -- 92
2021-02-16 22:00:00 9.7 0 Calma 5 Nordeste 0.4 -- -- 90
2021-02-16 21:00:00 10 0 Calma 4 Sudeste 0 -- -- 86
2021-02-16 20:00:00 11 0 Calma 4 Este 0 -- -- 82
2021-02-16 19:00:00 12.2 0 Calma 5 Sudeste 0 -- -- 81
2021-02-16 18:00:00 13.1 2 Sudeste 7 Oeste 0 -- -- 76
2021-02-16 17:00:00 14.1 3 Oeste 18 Noroeste 0 -- -- 66
2021-02-16 16:00:00 15.8 4 Oeste 26 Oeste 0 -- -- 61
2021-02-16 15:00:00 16.1 12 Oeste 41 Noroeste 0 -- -- 63
2021-02-16 14:00:00 18.1 7 Sur 23 Sudoeste 0 -- -- 49
2021-02-16 13:00:00 14.9 9 Sudeste 28 Sur 0 -- -- 58
2021-02-16 12:00:00 14.6 12 Sur 35 Sur 0 -- -- 58
2021-02-16 11:00:00 13.9 11 Sudeste 30 Este 0 -- -- 60
2021-02-16 10:00:00 13.5 10 Sudeste 36 Sur 0 -- -- 61
2021-02-16 09:00:00 13 22 Sudoeste 44 Sudoeste 0 -- -- 62
2021-02-16 08:00:00 13 16 Sudoeste 43 Sudoeste 0 -- -- 62
2021-02-16 07:00:00 13.3 22 Sudoeste 48 Sudoeste 0 -- -- 61
2021-02-16 06:00:00 13.4 8 Sudoeste 28 Noroeste 0 -- -- 61
2021-02-16 05:00:00 13.9 8 Sur 38 Sur 0 -- -- 59
2021-02-16 04:00:00 14 12 Sur 48 Este 0 -- -- 60
2021-02-16 03:00:00 14.2 12 Sudoeste 43 Sur 0 -- -- 60
2021-02-16 02:00:00 14 10 Norte 40 Sur 0 -- -- 61
2021-02-16 01:00:00 13.9 15 Sudoeste 48 Sudoeste 0 -- -- 61
2021-02-16 00:00:00 14.2 9 Sur 43 Sur 0 -- -- 58
2021-02-15 23:00:00 14.3 12 Sur 37 Oeste 0 -- -- 58
2021-02-15 22:00:00 14.4 6 Sur 23 Sudeste 0 -- -- 58
2021-02-15 21:00:00 14.6 8 Sudoeste 25 Sudoeste 0 -- -- 59
2021-02-15 20:00:00 14.8 5 Este 31 Sudoeste 0 -- -- 59
2021-02-15 19:00:00 14.8 5 Sudeste 24 Sur 0 -- -- 58
2021-02-15 18:00:00 16.1 6 Sudeste 33 Sur 0 -- -- 54
2021-02-15 17:00:00 17.5 10 Sudoeste 29 Sudoeste 0 -- -- 53
2021-02-15 16:00:00 17.8 7 Este 33 Sudeste 0 -- -- 51
2021-02-15 15:00:00 17.1 9 Sudeste 30 Este 0 -- -- 53
2021-02-15 14:00:00 15.4 9 Sur 35 Sur 0 -- -- 57
2021-02-15 13:00:00 14.9 10 Sur 38 Sur 0 -- -- 56
2021-02-15 12:00:00 14.9 14 Sur 35 Sudoeste 0 -- -- 57
2021-02-15 11:00:00 14 9 Sur 31 Sudeste 0 -- -- 58
2021-02-15 10:00:00 13 10 Sudeste 28 Sudoeste 0 -- -- 60
2021-02-15 09:00:00 12.6 14 Sur 36 Sudeste 0 -- -- 61
2021-02-15 08:00:00 12.3 6 Sudeste 33 Sudeste 0 -- -- 62
2021-02-15 07:00:00 12 6 Sudeste 31 Sur 0 -- -- 62
2021-02-15 06:00:00 11.9 9 Sur 35 Sudoeste 0 -- -- 64
2021-02-15 05:00:00 12.2 12 Sudeste 32 Sudeste 0 -- -- 63
2021-02-15 04:00:00 12.4 13 Sudeste 46 Sur 0 -- -- 63
2021-02-15 03:00:00 12.5 10 Sudeste 35 Sur 0 -- -- 63
2021-02-15 02:00:00 12.8 12 Sur 39 Sudoeste 0 -- -- 62
2021-02-15 01:00:00 13.2 9 Sudoeste 37 Sur 0 -- -- 61
2021-02-15 00:00:00 13.6 7 Sur 33 Sudoeste 0 -- -- 61
2021-02-14 23:00:00 14.2 12 Sur 42 Sudoeste 0 -- -- 59
2021-02-14 22:00:00 14.4 10 Sur 39 Sudoeste 0 -- -- 57
2021-02-14 21:00:00 14.6 10 Sudoeste 32 Sur 0 -- -- 57
2021-02-14 20:00:00 14.8 5 Sudoeste 35 Sudoeste 0 -- -- 56
2021-02-14 19:00:00 15.4 9 Sudoeste 38 Sudeste 0 -- -- 56
2021-02-14 18:00:00 16.5 12 Sur 35 Sudoeste 0 -- -- 51
2021-02-14 17:00:00 17.7 15 Sur 35 Sudoeste 0 -- -- 48
2021-02-14 16:00:00 18.5 10 Sur 35 Sudeste 0 -- -- 48
2021-02-14 15:00:00 18.6 11 Sur 36 Oeste 0 -- -- 46
2021-02-14 14:00:00 17.3 18 Sur 41 Sur 0 -- -- 50
2021-02-14 13:00:00 16.7 18 Sur 35 Sur 0 -- -- 52
2021-02-14 12:00:00 15.7 13 Sur 33 Sudoeste 0 -- -- 55
2021-02-14 11:00:00 12.9 8 Sur 29 Oeste 0 -- -- 71
2021-02-14 10:00:00 4.5 0 Calma 5 Norte 0 -- -- 100
2021-02-14 09:00:00 2.9 0 Calma 2 Sudoeste 0 -- -- 99
2021-02-14 08:00:00 2.9 0 Calma 2 Este 0 -- -- 99
2021-02-14 07:00:00 3.3 0 Calma 3 Sudeste 0 -- -- 98
2021-02-14 06:00:00 3.7 0 Calma 4 Este 0 -- -- 98
2021-02-14 05:00:00 4.3 0 Calma 4 Sudeste 0 -- -- 98
2021-02-14 04:00:00 5 0 Calma 6 Este 0 -- -- 98
2021-02-14 03:00:00 5.4 2 Nordeste 6 Nordeste 0 -- -- 98
2021-02-14 02:00:00 5.7 0 Calma 6 Este 0 -- -- 98
2021-02-14 01:00:00 5.6 0 Calma 2 Este 0 -- -- 97
2021-02-14 00:00:00 5.1 0 Calma 4 Sudeste 0 -- -- 96
2021-02-13 23:00:00 5.2 0 Calma 2 Sur 0 -- -- 95
2021-02-13 22:00:00 6 0 Calma 3 Este 0 -- -- 94
2021-02-13 21:00:00 7 0 Calma 2 Este 0 -- -- 93
2021-02-13 20:00:00 8.2 0 Calma 5 Sudeste 0 -- -- 90
2021-02-13 19:00:00 10.5 2 Sudeste 7 Noroeste 0 -- -- 85
2021-02-13 18:00:00 13.6 5 Noroeste 14 Norte 0 -- -- 74
2021-02-13 17:00:00 15.1 5 Noroeste 12 Noroeste 0 -- -- 69
2021-02-13 16:00:00 15.1 4 Noroeste 10 Noroeste 0 -- -- 70
2021-02-13 15:00:00 14.8 5 Noroeste 9 Noroeste 0 -- -- 71
2021-02-13 14:00:00 15.2 4 Norte 9 Noroeste 0 -- -- 69
2021-02-13 13:00:00 15 3 Sur 6 Sudeste 0 -- -- 72
2021-02-13 08:00:00 9.8 0 Calma 2 Sur 0 -- -- 98
2021-02-13 07:00:00 10.1 0 Calma 2 Sudeste 0.2 -- -- 97
2021-02-13 06:00:00 10.3 0 Calma 2 Sur 1.2 -- -- 98
2021-02-13 05:00:00 10.3 0 Calma 2 Sur 0 -- -- 97
2021-02-13 04:00:00 10.4 0 Calma 2 Este 0.2 -- -- 97
2021-02-13 03:00:00 10.5 0 Calma 4 Sur 0 -- -- 97
2021-02-13 02:00:00 10.6 0 Calma 7 Este 0 -- -- 96
2021-02-13 01:00:00 10.9 2 Nordeste 9 Nordeste 0.8 -- -- 95
2021-02-13 00:00:00 11.1 2 Norte 12 Oeste 0 -- -- 95
2021-02-12 23:00:00 11.4 3 Norte 16 Norte 0.6 -- -- 94
2021-02-12 22:00:00 11.5 4 Noroeste 21 Norte 3 -- -- 94
2021-02-12 21:00:00 11.7 5 Norte 20 Norte 2.6 -- -- 94
2021-02-12 20:00:00 11.9 4 Noroeste 23 Norte 1.4 -- -- 94
2021-02-12 19:00:00 11.9 3 Noroeste 20 Oeste 0.2 -- -- 93
2021-02-12 18:00:00 12.1 4 Noroeste 30 Sudoeste 0 -- -- 91
2021-02-12 17:00:00 12.6 9 Noroeste 41 Noroeste 0 -- -- 87
2021-02-12 16:00:00 12.6 15 Noroeste 41 Oeste 0 -- -- 87
2021-02-12 15:00:00 12.6 12 Oeste 39 Oeste 1.8 -- -- 90
2021-02-12 14:00:00 12.4 13 Oeste 41 Oeste 1 -- -- 91
2021-02-12 13:00:00 12.4 11 Oeste 31 Oeste 1.8 -- -- 92
2021-02-12 12:00:00 12.5 15 Oeste 34 Oeste 2.4 -- -- 90
2021-02-12 11:00:00 12.5 4 Oeste 11 Noroeste 0.2 -- -- 94
2021-02-12 10:00:00 12.1 3 Sudeste 14 Noroeste 1.4 -- -- 93
2021-02-12 09:00:00 12.2 4 Oeste 21 Oeste 1.6 -- -- 92
2021-02-12 08:00:00 12.7 8 Oeste 26 Noroeste 1.4 -- -- 89
2021-02-12 07:00:00 15.4 8 Sudeste 20 Sudeste 0 -- -- 71
2021-02-12 06:00:00 16.1 6 Sur 31 Sur 0 -- -- 66
2021-02-12 05:00:00 16 11 Sudoeste 29 Sudoeste 0 -- -- 66
2021-02-12 04:00:00 15.8 6 Sudoeste 22 Sudoeste 0 -- -- 67
2021-02-12 03:00:00 15.5 9 Sudoeste 24 Sur 0 -- -- 70
2021-02-12 02:00:00 11 2 Norte 11 Norte 0 -- -- 92
2021-02-12 01:00:00 9.1 2 Oeste 8 Noroeste 0 -- -- 96
2021-02-12 00:00:00 8.8 0 Calma 5 Noroeste 0 -- -- 95
2021-02-11 23:00:00 9 0 Calma 5 Sudeste 0 -- -- 94
2021-02-11 22:00:00 9.2 0 Calma 5 Sudoeste 0 -- -- 93
2021-02-11 21:00:00 10.2 0 Calma 4 Sudoeste 0 -- -- 90
2021-02-11 20:00:00 11.4 0 Calma 5 Sur 0 -- -- 86
2021-02-11 19:00:00 14 0 Calma 10 Sudeste 0 -- -- 79
2021-02-11 18:00:00 16.5 2 Sudeste 6 Sur 0 -- -- 73
2021-02-11 17:00:00 18.6 3 Sudeste 7 Sudeste 0 -- -- 62
2021-02-11 16:00:00 19.2 2 Oeste 15 Este 0 -- -- 58
2021-02-11 15:00:00 18.5 4 Sudeste 13 Este 0 -- -- 58
2021-02-11 14:00:00 17.3 4 Sudeste 17 Sur 0 -- -- 62
2021-02-11 13:00:00 14.5 3 Norte 5 Norte 0 -- -- 70
2021-02-11 12:00:00 11.2 0 Calma 5 Noroeste 0 -- -- 86
2021-02-11 11:00:00 7.5 0 Calma 3 Norte 0 -- -- 100
2021-02-11 10:00:00 4.9 0 Calma 2 Noroeste 0 -- -- 99
2021-02-11 09:00:00 3.8 0 Calma 5 Nordeste 0 -- -- 99
2021-02-11 08:00:00 3.8 2 Este 5 Este 0 -- -- 98
2021-02-11 07:00:00 4.3 0 Calma 6 Noroeste 0 -- -- 98
2021-02-11 06:00:00 4.8 2 Nordeste 4 Nordeste 0 -- -- 98
2021-02-11 05:00:00 5 0 Calma 2 Este 0 -- -- 98
2021-02-11 04:00:00 4.4 0 Calma 2 Nordeste 0 -- -- 97
2021-02-11 03:00:00 4.3 0 Calma 4 Sur 0 -- -- 96
2021-02-11 02:00:00 5.3 0 Calma 4 Sur 0 -- -- 95
2021-02-11 01:00:00 6.9 0 Calma 2 Sur 0 -- -- 95
2021-02-11 00:00:00 7.3 0 Calma 5 Este 0 -- -- 95
2021-02-10 23:00:00 8.2 0 Calma 4 Nordeste 0 -- -- 92
2021-02-10 22:00:00 9.1 0 Calma 5 Sudoeste 0 -- -- 93
2021-02-10 21:00:00 9.4 0 Calma 6 Sudeste 0.2 -- -- 91
2021-02-10 20:00:00 10.3 0 Calma 17 Oeste 0 -- -- 86
2021-02-10 19:00:00 10 0 Calma 13 Oeste 0 -- -- 88
2021-02-10 18:00:00 10 3 Noroeste 24 Oeste 0.6 -- -- 88
2021-02-10 17:00:00 10.3 2 Este 19 Sudoeste 0.2 -- -- 88
2021-02-10 16:00:00 10.4 6 Oeste 26 Noroeste 0.2 -- -- 85
2021-02-10 15:00:00 9.9 4 Oeste 21 Oeste 1.6 -- -- 89
2021-02-10 14:00:00 10.2 6 Oeste 23 Sudoeste 0.6 -- -- 86
2021-02-10 13:00:00 9.7 6 Oeste 17 Oeste 1.2 -- -- 86
2021-02-10 12:00:00 9.6 3 Noroeste 37 Oeste 0.8 -- -- 84
2021-02-10 11:00:00 9.9 13 Oeste 24 Sudoeste 0 -- -- 76
2021-02-10 10:00:00 7.3 3 Este 5 Nordeste 0.8 -- -- 96
2021-02-10 09:00:00 6.5 0 Calma 2 Este 0 -- -- 95
2021-02-10 08:00:00 6.3 2 Este 3 Este 0 -- -- 94
2021-02-10 07:00:00 6.3 0 Calma 6 Sur 0 -- -- 93
2021-02-10 06:00:00 6 3 Nordeste 11 Sur 0 -- -- 92
2021-02-10 05:00:00 5.3 0 Calma 4 Sur 0 -- -- 92
2021-02-10 04:00:00 6 0 Calma 6 Noroeste 0 -- -- 86
2021-02-10 03:00:00 8.9 4 Noroeste 14 Sudoeste 0 -- -- 75
2021-02-10 02:00:00 9.7 6 Sur 18 Sur 0 -- -- 71
2021-02-10 01:00:00 9.3 3 Este 10 Este 0 -- -- 77
2021-02-10 00:00:00 7.7 4 Oeste 12 Sudoeste 0.2 -- -- 89
2021-02-09 23:00:00 6.6 2 Nordeste 10 Sudoeste 0 -- -- 90
2021-02-09 22:00:00 6 0 Calma 6 Sur 0 -- -- 91
2021-02-09 21:00:00 6.7 0 Calma 8 Sur 0 -- -- 88
2021-02-09 20:00:00 7.6 0 Calma 9 Sur 0 -- -- 86
2021-02-09 19:00:00 9.7 3 Este 14 Sudeste 0 -- -- 78
2021-02-09 18:00:00 12 4 Sudeste 25 Sur 0 -- -- 72
2021-02-09 17:00:00 11.7 4 Nordeste 17 Sudeste 0.6 -- -- 78
2021-02-09 16:00:00 12.3 9 Sudoeste 28 Sudoeste 0.8 -- -- 79
2021-02-09 15:00:00 12.9 6 Sudeste 21 Nordeste 0 -- -- 68
2021-02-09 14:00:00 13.5 8 Sur 38 Sudoeste 0 -- -- 65
2021-02-09 13:00:00 13.3 10 Sudeste 36 Sur 0 -- -- 61
2021-02-09 12:00:00 12.2 4 Este 23 Este 0 -- -- 66
2021-02-09 11:00:00 12.1 10 Sur 32 Sudeste 0 -- -- 62
2021-02-09 10:00:00 11.9 14 Sur 34 Sur 0 -- -- 65
2021-02-09 09:00:00 11.3 8 Sudeste 28 Sudeste 0 -- -- 68
2021-02-09 08:00:00 10.7 7 Sudeste 23 Sudeste 0 -- -- 73
2021-02-09 07:00:00 7.2 4 Sudeste 11 Sudoeste 0 -- -- 99
2021-02-09 06:00:00 6 0 Calma 6 Sudeste 0 -- -- 97
2021-02-09 05:00:00 6.1 0 Calma 5 Sudoeste 0.2 -- -- 97
2021-02-09 04:00:00 6.3 0 Calma 3 Sur 0 -- -- 96
2021-02-09 03:00:00 7.2 0 Calma 2 Sudeste 0 -- -- 97
2021-02-09 02:00:00 7 0 Calma 5 Noroeste 0 -- -- 96
2021-02-09 01:00:00 6.9 0 Calma 5 Sudoeste 0 -- -- 95
2021-02-09 00:00:00 8.1 0 Calma 6 Noroeste 0 -- -- 95
2021-02-08 23:00:00 8.6 0 Calma 5 Sur 0 -- -- 91
2021-02-08 22:00:00 10.3 0 Calma 20 Sudoeste 1.4 -- -- 88
2021-02-08 21:00:00 11.3 6 Oeste 26 Oeste 0.2 -- -- 79
2021-02-08 20:00:00 11.6 9 Oeste 22 Oeste 0 -- -- 75
2021-02-08 19:00:00 11.8 4 Oeste 22 Oeste 0 -- -- 77
2021-02-08 18:00:00 12 4 Sudoeste 14 Noroeste 0 -- -- 76
2021-02-08 17:00:00 13 4 Oeste 22 Oeste 0 -- -- 70
2021-02-08 16:00:00 13 5 Oeste 19 Sudoeste 0 -- -- 69
2021-02-08 15:00:00 14.2 7 Noroeste 19 Sudoeste 0 -- -- 66
2021-02-08 14:00:00 13.2 5 Sur 16 Sur 0 -- -- 74
2021-02-08 13:00:00 10.6 2 Noroeste 6 Noroeste 0.2 -- -- 94
2021-02-08 12:00:00 9.2 0 Calma 10 Noroeste 1.4 -- -- 96
2021-02-08 11:00:00 8.7 4 Noroeste 8 Noroeste 0.8 -- -- 96
2021-02-08 10:00:00 8.6 2 Noroeste 6 Noroeste 0.8 -- -- 95
2021-02-08 09:00:00 8.3 0 Calma 6 Norte 0.2 -- -- 94
2021-02-08 08:00:00 8.5 3 Noroeste 7 Norte 0 -- -- 91
2021-02-08 07:00:00 9.3 3 Sudoeste 14 Este 0.2 -- -- 82
2021-02-08 06:00:00 9.2 0 Calma 14 Sur 0.8 -- -- 87
2021-02-08 05:00:00 8.3 2 Norte 6 Norte 0.2 -- -- 95
2021-02-08 04:00:00 8.3 3 Norte 6 Norte 0.2 -- -- 93
2021-02-08 03:00:00 9.1 3 Este 14 Sur 0.4 -- -- 85
2021-02-08 02:00:00 8.1 2 Noroeste 9 Noroeste 0.2 -- -- 93
2021-02-08 01:00:00 7.7 2 Noroeste 5 Noroeste 0 -- -- 96
2021-02-08 00:00:00 7.6 0 Calma 7 Norte 0.4 -- -- 96
2021-02-07 23:00:00 7.3 0 Calma 4 Norte 0.2 -- -- 95
2021-02-07 22:00:00 7.1 0 Calma 2 Este 0 -- -- 93
2021-02-07 21:00:00 7.3 0 Calma 3 Sudeste 0 -- -- 90
2021-02-07 20:00:00 8.2 0 Calma 4 Este 0 -- -- 87
2021-02-07 19:00:00 9.2 0 Calma 6 Noroeste 0 -- -- 81
2021-02-07 18:00:00 10.4 0 Calma 5 Nordeste 0 -- -- 82
2021-02-07 17:00:00 11.1 0 Calma 6 Oeste 0 -- -- 69
2021-02-07 16:00:00 11.1 4 Noroeste 15 Sudoeste 0 -- -- 67
2021-02-07 15:00:00 11.1 4 Oeste 18 Oeste 0 -- -- 70
2021-02-07 14:00:00 10.7 5 Sudoeste 14 Sudoeste 0 -- -- 75
2021-02-07 13:00:00 9.4 4 Nordeste 8 Nordeste 0 -- -- 85
2021-02-07 12:00:00 8.3 4 Sudoeste 12 Sudoeste 0.4 -- -- 90
2021-02-07 11:00:00 7.4 0 Calma 5 Nordeste 0.6 -- -- 96
2021-02-07 10:00:00 6.7 0 Calma 5 Noroeste 0 -- -- 98
2021-02-07 09:00:00 6.1 0 Calma 2 Sudeste 0.2 -- -- 97
2021-02-07 08:00:00 6 0 Calma 4 Sur 1.8 -- -- 97
2021-02-07 07:00:00 5.9 0 Calma 3 Nordeste 0.4 -- -- 97
2021-02-07 06:00:00 5.7 0 Calma 5 Nordeste 0.6 -- -- 96
2021-02-07 05:00:00 6 0 Calma 4 Noroeste 1 -- -- 97
2021-02-07 04:00:00 6.1 0 Calma 4 Sudeste 1 -- -- 96
2021-02-07 03:00:00 6.1 0 Calma 15 Norte 1.2 -- -- 96
2021-02-07 02:00:00 6.4 0 Calma 15 Sudoeste 0.6 -- -- 93
2021-02-07 01:00:00 6.6 0 Calma 6 Sur 0 -- -- 94
2021-02-07 00:00:00 6.9 2 Nordeste 7 Nordeste 1 -- -- 93
2021-02-06 23:00:00 7.4 2 Sudoeste 14 Oeste 0.4 -- -- 88
2021-02-06 22:00:00 8.1 4 Oeste 23 Noroeste 0.6 -- -- 83
2021-02-06 21:00:00 9 8 Noroeste 26 Oeste 0 -- -- 79
2021-02-06 20:00:00 8.7 6 Oeste 23 Oeste 0.2 -- -- 88
2021-02-06 19:00:00 8.4 6 Oeste 22 Oeste 3 -- -- 93
2021-02-06 18:00:00 9 10 Oeste 38 Noroeste 6 -- -- 92
2021-02-06 17:00:00 9.6 13 Noroeste 28 Noroeste 5 -- -- 94
2021-02-06 16:00:00 10 8 Noroeste 37 Oeste 8 -- -- 94
2021-02-06 15:00:00 10.9 10 Norte 31 Norte 5.2 -- -- 95
2021-02-06 14:00:00 11.4 0 Calma 4 Sudoeste 1.8 -- -- 97
2021-02-06 13:00:00 11.3 0 Calma 3 Sudoeste 1.4 -- -- 98
2021-02-06 12:00:00 11 0 Calma 0 Calma 1.4 -- -- 98
2021-02-06 11:00:00 10.6 0 Calma 2 Sudeste 2.2 -- -- 98
2021-02-06 10:00:00 10.3 0 Calma 3 Sudeste 1.8 -- -- 97
2021-02-06 09:00:00 10.2 0 Calma 2 Sur 1 -- -- 97
2021-02-06 08:00:00 10.2 0 Calma 5 Sur 0.4 -- -- 97
2021-02-06 07:00:00 10.3 0 Calma 6 Sur 0.2 -- -- 96
2021-02-06 06:00:00 10.2 2 Sur 3 Sur 0 -- -- 96
2021-02-06 05:00:00 10.3 2 Sudoeste 6 Sudoeste 0 -- -- 96
2021-02-06 04:00:00 10.2 3 Sudeste 5 Sudeste 0 -- -- 95
2021-02-06 03:00:00 10.6 0 Calma 3 Sudoeste 0 -- -- 94
2021-02-06 02:00:00 10.9 0 Calma 2 Este 0 -- -- 94
2021-02-06 01:00:00 11.1 0 Calma 2 Este 0 -- -- 94
2021-02-06 00:00:00 11.3 0 Calma 6 Sudoeste 0 -- -- 93
2021-02-05 23:00:00 11.4 3 Sudoeste 7 Norte 0 -- -- 92
2021-02-05 22:00:00 11.6 3 Norte 8 Norte 0 -- -- 92
2021-02-05 21:00:00 11.6 3 Norte 10 Norte 0 -- -- 92
2021-02-05 20:00:00 11.7 0 Calma 6 Sudoeste 0 -- -- 93
2021-02-05 19:00:00 11.6 3 Norte 12 Norte 0 -- -- 93
2021-02-05 18:00:00 12.1 6 Norte 15 Norte 0 -- -- 91
2021-02-05 17:00:00 12.9 6 Noroeste 15 Norte 0 -- -- 88
2021-02-05 16:00:00 13.3 6 Noroeste 13 Noroeste 0 -- -- 88
2021-02-05 15:00:00 13.8 7 Noroeste 14 Noroeste 0 -- -- 86
2021-02-05 14:00:00 14.3 7 Norte 17 Norte 0 -- -- 84
2021-02-05 13:00:00 14.5 0 Calma 4 Sudoeste 0 -- -- 82
2021-02-05 12:00:00 13.8 0 Calma 3 Norte 0 -- -- 86
2021-02-05 11:00:00 12.2 0 Calma 4 Sudoeste 0 -- -- 95
2021-02-05 10:00:00 11.3 0 Calma 2 Oeste 0 -- -- 97
2021-02-05 09:00:00 10.9 0 Calma 4 Nordeste 0 -- -- 97
2021-02-05 08:00:00 10.8 0 Calma 6 Sudeste 0 -- -- 97
2021-02-05 07:00:00 10.5 2 Sur 8 Sudeste 0.4 -- -- 97
2021-02-05 06:00:00 10.2 0 Calma 8 Nordeste 0 -- -- 97
2021-02-05 05:00:00 9.8 0 Calma 6 Sur 0 -- -- 97
2021-02-05 04:00:00 9.2 0 Calma 3 Sudoeste 0 -- -- 97
2021-02-05 03:00:00 8.6 0 Calma 4 Sur 0 -- -- 96
2021-02-05 02:00:00 8.7 0 Calma 4 Sudeste 0 -- -- 95
2021-02-05 01:00:00 9.6 0 Calma 2 Sur 0 -- -- 94
2021-02-05 00:00:00 10 0 Calma 3 Este 0 -- -- 95
2021-02-04 23:00:00 10.1 0 Calma 3 Sudeste 0 -- -- 93
2021-02-04 22:00:00 10.6 0 Calma 6 Sudeste 0 -- -- 93
2021-02-04 21:00:00 10.8 0 Calma 3 Sudoeste 0 -- -- 90
2021-02-04 20:00:00 11.9 0 Calma 5 Sur 0 -- -- 88
2021-02-04 19:00:00 14.1 0 Calma 6 Sudeste 0 -- -- 82
2021-02-04 18:00:00 15.2 4 Sudeste 23 Nordeste 0 -- -- 78
2021-02-04 17:00:00 16 4 Este 19 Nordeste 0 -- -- 73
2021-02-04 16:00:00 16.7 4 Nordeste 15 Este 0 -- -- 70
2021-02-04 15:00:00 16.5 6 Este 11 Nordeste 0 -- -- 71
2021-02-04 14:00:00 16 0 Calma 3 Norte 0 -- -- 79
2021-02-04 13:00:00 15.1 0 Calma 2 Sur 0 -- -- 82
2021-02-04 12:00:00 15.3 0 Calma 21 Sur 0 -- -- 78
2021-02-04 11:00:00 13.9 6 Sudoeste 22 Sudeste 0.2 -- -- 80
2021-02-04 10:00:00 13.7 3 Este 15 Sudeste 0.6 -- -- 85
2021-02-04 09:00:00 14.7 2 Este 15 Sudeste 0 -- -- 76
2021-02-04 08:00:00 15.6 8 Sur 23 Sudeste 0 -- -- 67
2021-02-04 07:00:00 16.1 5 Sudeste 19 Sudeste 0 -- -- 64
2021-02-04 06:00:00 15.8 6 Sudeste 21 Sur 0 -- -- 66
2021-02-04 05:00:00 15.8 5 Sudeste 20 Sur 0 -- -- 66
2021-02-04 04:00:00 15.8 10 Sur 20 Sur 0 -- -- 65
2021-02-04 03:00:00 15.5 4 Sudoeste 19 Sudeste 0 -- -- 67
2021-02-04 02:00:00 15.6 3 Este 27 Sur 0 -- -- 67
2021-02-04 01:00:00 15.6 5 Sudeste 18 Sudoeste 0 -- -- 68
2021-02-04 00:00:00 15.6 3 Sudeste 21 Sudeste 0 -- -- 67
2021-02-03 23:00:00 14.8 4 Este 16 Nordeste 0 -- -- 66
2021-02-03 22:00:00 13.5 0 Calma 11 Sudoeste 0 -- -- 72
2021-02-03 21:00:00 14.2 2 Sur 15 Sudeste 0 -- -- 72
2021-02-03 20:00:00 14.7 2 Este 11 Sudeste 0 -- -- 70
2021-02-03 19:00:00 14.8 4 Sudeste 13 Sur 0 -- -- 70
2021-02-03 18:00:00 15.1 2 Sudeste 9 Norte 0 -- -- 70
2021-02-03 17:00:00 15.9 5 Noroeste 17 Noroeste 0 -- -- 63
2021-02-03 16:00:00 17.2 4 Este 18 Norte 0 -- -- 61
2021-02-03 15:00:00 17.6 7 Oeste 27 Sur 0 -- -- 62
2021-02-03 14:00:00 18.6 10 Sur 22 Sur 0 -- -- 58
2021-02-03 13:00:00 16.8 10 Sur 24 Sur 0 -- -- 63
2021-02-03 12:00:00 16.2 9 Sur 27 Sur 0 -- -- 62
2021-02-03 11:00:00 17.2 5 Sur 28 Sudoeste 0 -- -- 57
2021-02-03 10:00:00 16.2 11 Sudoeste 39 Sudoeste 0 -- -- 58
2021-02-03 09:00:00 15.6 14 Sudoeste 49 Sudoeste 0 -- -- 59
2021-02-03 08:00:00 15.8 15 Sur 36 Sudoeste 0 -- -- 58
2021-02-03 07:00:00 15.5 14 Sudoeste 42 Sudoeste 0 -- -- 59
2021-02-03 06:00:00 16.1 12 Sur 49 Sudoeste 0 -- -- 57
2021-02-03 05:00:00 15.9 14 Sudoeste 41 Sudoeste 0 -- -- 58
2021-02-03 04:00:00 15.4 5 Nordeste 23 Sudoeste 0 -- -- 62
2021-02-03 03:00:00 15.9 8 Sudeste 29 Sudeste 0 -- -- 60
2021-02-03 02:00:00 16.2 8 Sudeste 29 Sur 0 -- -- 60
2021-02-03 01:00:00 16.7 19 Sur 50 Sudoeste 0 -- -- 59
2021-02-03 00:00:00 13.7 5 Norte 12 Norte 0 -- -- 71
2021-02-02 23:00:00 15.3 2 Sur 19 Este 0 -- -- 71
2021-02-02 22:00:00 16.2 3 Sur 23 Sudoeste 0 -- -- 65
2021-02-02 21:00:00 18 9 Sur 27 Sur 0 -- -- 56
2021-02-02 20:00:00 16.7 4 Sudoeste 16 Sudoeste 0 -- -- 62
2021-02-02 19:00:00 15.3 5 Sudeste 17 Sudeste 0.4 -- -- 77
2021-02-02 18:00:00 17.8 5 Sudeste 17 Oeste 0 -- -- 59
2021-02-02 17:00:00 18.8 5 Sur 22 Sudoeste 0 -- -- 58
2021-02-02 16:00:00 20.1 10 Sur 23 Sudoeste 0 -- -- 54
2021-02-02 15:00:00 19.5 9 Sudeste 33 Sur 0 -- -- 56
2021-02-02 14:00:00 20.7 6 Sudeste 21 Sur 0 -- -- 55
2021-02-02 13:00:00 18.5 5 Sudeste 18 Sur 0 -- -- 60
2021-02-02 12:00:00 15.5 6 Sudeste 21 Sur 0 -- -- 78
2021-02-02 11:00:00 11.1 2 Noroeste 6 Noroeste 0 -- -- 100
2021-02-02 10:00:00 8.4 0 Calma 3 Sudoeste 0 -- -- 99
2021-02-02 09:00:00 7.3 0 Calma 4 Sudeste 0 -- -- 99
2021-02-02 08:00:00 6.7 2 Sudoeste 4 Sudoeste 0 -- -- 98
2021-02-02 07:00:00 7.2 0 Calma 4 Este 0 -- -- 97
2021-02-02 06:00:00 8 0 Calma 4 Sudeste 0 -- -- 97
2021-02-02 05:00:00 9 0 Calma 4 Sur 0 -- -- 97
2021-02-02 04:00:00 10 2 Sur 5 Sur 0 -- -- 96
2021-02-02 03:00:00 11.1 0 Calma 3 Sur 0 -- -- 97
2021-02-02 02:00:00 11.2 0 Calma 3 Sur 0 -- -- 97
2021-02-02 01:00:00 11.4 0 Calma 3 Sur 0 -- -- 97
2021-02-02 00:00:00 11.6 0 Calma 5 Noroeste 0 -- -- 97
2021-02-01 23:00:00 11.6 0 Calma 4 Noroeste 0.4 -- -- 96
2021-02-01 22:00:00 11.8 0 Calma 5 Sudoeste 0.2 -- -- 95
2021-02-01 21:00:00 12.1 2 Este 8 Sur 1.6 -- -- 94
2021-02-01 20:00:00 12.8 2 Sudoeste 12 Oeste 0 -- -- 87
2021-02-01 19:00:00 13.3 3 Oeste 18 Noroeste 0 -- -- 84
2021-02-01 18:00:00 13.5 0 Calma 15 Sudoeste 0 -- -- 87
2021-02-01 17:00:00 13.4 6 Noroeste 19 Sudoeste 0 -- -- 86
2021-02-01 16:00:00 12.9 4 Oeste 29 Noroeste 1.2 -- -- 90
2021-02-01 15:00:00 12.7 9 Oeste 24 Oeste 5.6 -- -- 92
2021-02-01 14:00:00 13.3 6 Oeste 36 Noroeste 1 -- -- 86
2021-02-01 13:00:00 14.3 13 Noroeste 37 Sudoeste 0 -- -- 75
2021-02-01 12:00:00 14 14 Oeste 37 Sudoeste 0 -- -- 77
2021-02-01 11:00:00 13.7 9 Oeste 29 Oeste 0 -- -- 77
2021-02-01 10:00:00 13.7 8 Oeste 33 Noroeste 0 -- -- 72
2021-02-01 09:00:00 13.6 9 Oeste 48 Oeste 0 -- -- 71
2021-02-01 08:00:00 13.7 12 Oeste 42 Noroeste 0 -- -- 73
2021-02-01 07:00:00 13.6 13 Oeste 35 Oeste 0 -- -- 74
2021-02-01 06:00:00 13.6 19 Oeste 47 Oeste 0 -- -- 74
2021-02-01 05:00:00 13.5 16 Oeste 58 Sudoeste 0 -- -- 74
2021-02-01 04:00:00 13.4 14 Oeste 43 Oeste 0.2 -- -- 77
2021-02-01 03:00:00 13.5 12 Oeste 55 Sudoeste 0.2 -- -- 74
2021-02-01 02:00:00 12.8 12 Oeste 46 Sudoeste 0.2 -- -- 81
2021-02-01 01:00:00 13.7 17 Oeste 54 Sudoeste 0.2 -- -- 77
2021-02-01 00:00:00 13.5 8 Noroeste 27 Oeste 0.2 -- -- 80
2021-01-31 23:00:00 13.8 10 Oeste 37 Sudoeste 1 -- -- 84
2021-01-31 22:00:00 10.6 3 Norte 10 Oeste 0.6 -- -- 98
2021-01-31 21:00:00 9.1 0 Calma 5 Sudeste 0 -- -- 97
2021-01-31 20:00:00 8.6 0 Calma 4 Sudeste 0 -- -- 96
2021-01-31 19:00:00 9.8 2 Sur 6 Este 0 -- -- 93
2021-01-31 18:00:00 12 0 Calma 7 Sudeste 0 -- -- 91
2021-01-31 17:00:00 13.5 2 Este 6 Sudeste 0 -- -- 93
2021-01-31 16:00:00 13.3 3 Norte 25 Oeste 0.2 -- -- 91
2021-01-31 15:00:00 13.2 7 Oeste 32 Oeste 0.2 -- -- 91
2021-01-31 14:00:00 11.4 3 Nordeste 8 Nordeste 1.4 -- -- 95
2021-01-31 13:00:00 11.3 2 Norte 6 Noroeste 1.4 -- -- 94
2021-01-31 12:00:00 11.5 0 Calma 8 Nordeste 1.4 -- -- 93
2021-01-31 11:00:00 11.1 3 Nordeste 22 Oeste 0.4 -- -- 92
2021-01-31 10:00:00 10.9 2 Sudoeste 24 Oeste 0.2 -- -- 90
2021-01-31 09:00:00 10.3 9 Oeste 30 Oeste 1 -- -- 92
2021-01-31 08:00:00 10.1 7 Oeste 30 Oeste 2.4 -- -- 92
2021-01-31 07:00:00 10.5 14 Oeste 48 Oeste 1.4 -- -- 89
2021-01-31 06:00:00 10.9 20 Oeste 50 Sudoeste 0.4 -- -- 86
2021-01-31 05:00:00 11 17 Oeste 51 Sudoeste 0.2 -- -- 85
2021-01-31 04:00:00 11.1 21 Oeste 50 Sudoeste 0.8 -- -- 82
2021-01-31 03:00:00 10.7 19 Oeste 63 Sudoeste 2 -- -- 86
2021-01-31 02:00:00 10.4 13 Oeste 49 Sudoeste 2.2 -- -- 87
2021-01-31 01:00:00 10.6 15 Oeste 48 Sudoeste 2.2 -- -- 82
2021-01-31 00:00:00 10.5 18 Oeste 35 Oeste 1.6 -- -- 80
2021-01-30 23:00:00 9.9 13 Oeste 43 Oeste 1.8 -- -- 82
2021-01-30 22:00:00 10.7 19 Oeste 46 Sudoeste 0.6 -- -- 73
2021-01-30 21:00:00 10 7 Oeste 31 Oeste 1.6 -- -- 79
2021-01-30 20:00:00 11.3 5 Oeste 31 Sudoeste 0 -- -- 67
2021-01-30 19:00:00 11.2 7 Oeste 17 Oeste 0 -- -- 68
2021-01-30 18:00:00 11.8 11 Oeste 35 Oeste 0.2 -- -- 68
2021-01-30 17:00:00 11.8 9 Oeste 23 Sudoeste 0 -- -- 69
2021-01-30 16:00:00 12.6 5 Oeste 24 Sur 0 -- -- 73
2021-01-30 15:00:00 11 11 Oeste 31 Oeste 0.2 -- -- 81
2021-01-30 14:00:00 11.4 6 Noroeste 17 Noroeste 0 -- -- 91
2021-01-30 13:00:00 10.1 3 Nordeste 31 Oeste 2.8 -- -- 96
2021-01-30 12:00:00 10.2 5 Noroeste 28 Noroeste 6.2 -- -- 96
2021-01-30 11:00:00 10.9 5 Sur 15 Sur 1.4 -- -- 98
2021-01-30 10:00:00 10.5 0 Calma 9 Este 0.4 -- -- 97
2021-01-30 09:00:00 10.7 0 Calma 48 Oeste 8.8 -- -- 96
2021-01-30 08:00:00 12.2 3 Norte 15 Norte 0 -- -- 97
2021-01-30 07:00:00 12 6 Este 13 Norte 0.2 -- -- 96
2021-01-30 06:00:00 12.8 2 Nordeste 18 Oeste 3.2 -- -- 92
2021-01-30 05:00:00 14.9 2 Este 15 Sudeste 0.4 -- -- 78
2021-01-30 04:00:00 15.7 6 Sudeste 19 Sudeste 0 -- -- 67
2021-01-30 03:00:00 15.8 7 Sudeste 34 Sudoeste 0 -- -- 68
2021-01-30 02:00:00 15.8 9 Sudoeste 28 Sur 0 -- -- 70
2021-01-30 01:00:00 11.2 4 Oeste 18 Sur 0 -- -- 98
2021-01-30 00:00:00 10 2 Oeste 6 Norte 0 -- -- 98